sensor_id;sensor_type;location;lat;lon;timestamp;P1;durP1;ratioP1;P2;durP2;ratioP2
74849;SDS011;63397;47.480;19.238;2022-12-18T00:02:48;49.67;;;13.57;;
74849;SDS011;63397;47.480;19.238;2022-12-18T00:05:51;48.33;;;14.23;;
74849;SDS011;63397;47.480;19.238;2022-12-18T00:08:54;42.47;;;14.23;;
74849;SDS011;63397;47.480;19.238;2022-12-18T00:11:57;44.53;;;14.18;;
74849;SDS011;63397;47.480;19.238;2022-12-18T00:14:59;41.20;;;13.57;;
74849;SDS011;63397;47.480;19.238;2022-12-18T00:18:01;49.20;;;13.77;;
74849;SDS011;63397;47.480;19.238;2022-12-18T00:21:05;49.05;;;14.38;;
74849;SDS011;63397;47.480;19.238;2022-12-18T00:24:08;47.50;;;13.48;;
74849;SDS011;63397;47.480;19.238;2022-12-18T00:27:10;49.45;;;13.80;;
74849;SDS011;63397;47.480;19.238;2022-12-18T00:30:12;46.13;;;14.83;;
74849;SDS011;63397;47.480;19.238;2022-12-18T00:33:15;50.93;;;15.00;;
74849;SDS011;63397;47.480;19.238;2022-12-18T00:36:19;46.40;;;13.23;;
74849;SDS011;63397;47.480;19.238;2022-12-18T00:39:21;42.08;;;13.68;;
74849;SDS011;63397;47.480;19.238;2022-12-18T00:42:24;43.72;;;12.77;;
74849;SDS011;63397;47.480;19.238;2022-12-18T00:45:45;44.60;;;12.67;;
74849;SDS011;63397;47.480;19.238;2022-12-18T00:48:47;45.63;;;15.03;;
74849;SDS011;63397;47.480;19.238;2022-12-18T00:51:49;42.55;;;12.50;;
74849;SDS011;63397;47.480;19.238;2022-12-18T00:54:52;47.88;;;14.70;;
74849;SDS011;63397;47.480;19.238;2022-12-18T00:57:54;50.40;;;15.88;;
74849;SDS011;63397;47.480;19.238;2022-12-18T01:00:56;44.03;;;12.90;;
74849;SDS011;63397;47.480;19.238;2022-12-18T01:04:00;51.07;;;13.33;;
74849;SDS011;63397;47.480;19.238;2022-12-18T01:07:02;41.35;;;12.30;;
74849;SDS011;63397;47.480;19.238;2022-12-18T01:10:05;41.17;;;12.80;;
74849;SDS011;63397;47.480;19.238;2022-12-18T01:13:09;47.10;;;13.02;;
74849;SDS011;63397;47.480;19.238;2022-12-18T01:16:12;42.40;;;13.17;;
74849;SDS011;63397;47.480;19.238;2022-12-18T01:19:15;44.87;;;12.77;;
74849;SDS011;63397;47.480;19.238;2022-12-18T01:22:17;42.80;;;14.02;;
74849;SDS011;63397;47.480;19.238;2022-12-18T01:25:19;47.47;;;14.32;;
74849;SDS011;63397;47.480;19.238;2022-12-18T01:28:22;42.83;;;13.05;;
74849;SDS011;63397;47.480;19.238;2022-12-18T01:31:28;38.10;;;11.73;;
74849;SDS011;63397;47.480;19.238;2022-12-18T01:34:31;38.80;;;12.40;;
74849;SDS011;63397;47.480;19.238;2022-12-18T01:37:34;48.00;;;13.32;;
74849;SDS011;63397;47.480;19.238;2022-12-18T01:40:37;37.97;;;12.35;;
74849;SDS011;63397;47.480;19.238;2022-12-18T01:43:53;43.63;;;14.27;;
74849;SDS011;63397;47.480;19.238;2022-12-18T01:46:55;43.87;;;13.10;;
74849;SDS011;63397;47.480;19.238;2022-12-18T01:49:58;38.30;;;12.17;;
74849;SDS011;63397;47.480;19.238;2022-12-18T01:56:12;42.35;;;14.40;;
74849;SDS011;63397;47.480;19.238;2022-12-18T01:59:15;42.42;;;12.57;;
74849;SDS011;63397;47.480;19.238;2022-12-18T02:02:18;37.03;;;12.27;;
74849;SDS011;63397;47.480;19.238;2022-12-18T02:08:41;43.63;;;12.77;;
74849;SDS011;63397;47.480;19.238;2022-12-18T02:11:47;41.85;;;12.52;;
74849;SDS011;63397;47.480;19.238;2022-12-18T02:17:58;41.63;;;12.30;;
74849;SDS011;63397;47.480;19.238;2022-12-18T02:27:50;46.58;;;12.65;;
74849;SDS011;63397;47.480;19.238;2022-12-18T02:30:54;43.50;;;12.98;;
74849;SDS011;63397;47.480;19.238;2022-12-18T02:33:59;38.63;;;12.77;;
74849;SDS011;63397;47.480;19.238;2022-12-18T02:37:02;42.80;;;12.07;;
74849;SDS011;63397;47.480;19.238;2022-12-18T02:40:07;37.08;;;11.82;;
74849;SDS011;63397;47.480;19.238;2022-12-18T02:43:13;46.20;;;12.95;;
74849;SDS011;63397;47.480;19.238;2022-12-18T02:46:30;40.90;;;11.85;;
74849;SDS011;63397;47.480;19.238;2022-12-18T02:56:20;42.58;;;12.50;;
74849;SDS011;63397;47.480;19.238;2022-12-18T02:59:25;43.83;;;13.50;;
74849;SDS011;63397;47.480;19.238;2022-12-18T03:02:35;41.15;;;12.68;;
74849;SDS011;63397;47.480;19.238;2022-12-18T03:05:41;40.80;;;12.00;;
74849;SDS011;63397;47.480;19.238;2022-12-18T03:08:47;36.07;;;12.00;;
74849;SDS011;63397;47.480;19.238;2022-12-18T03:11:56;46.13;;;11.57;;
74849;SDS011;63397;47.480;19.238;2022-12-18T03:15:20;29.70;;;12.13;;
74849;SDS011;63397;47.480;19.238;2022-12-18T03:18:35;42.28;;;13.02;;
74849;SDS011;63397;47.480;19.238;2022-12-18T03:21:40;38.90;;;12.13;;
74849;SDS011;63397;47.480;19.238;2022-12-18T03:24:45;43.47;;;12.63;;
74849;SDS011;63397;47.480;19.238;2022-12-18T03:27:50;49.75;;;14.43;;
74849;SDS011;63397;47.480;19.238;2022-12-18T03:30:57;39.45;;;12.70;;
74849;SDS011;63397;47.480;19.238;2022-12-18T03:34:01;43.80;;;14.30;;
74849;SDS011;63397;47.480;19.238;2022-12-18T03:37:13;41.87;;;13.03;;
74849;SDS011;63397;47.480;19.238;2022-12-18T03:40:15;52.00;;;14.27;;
74849;SDS011;63397;47.480;19.238;2022-12-18T03:44:21;48.38;;;12.68;;
74849;SDS011;63397;47.480;19.238;2022-12-18T03:50:13;42.22;;;12.75;;
74849;SDS011;63397;47.480;19.238;2022-12-18T03:56:28;37.57;;;12.23;;
74849;SDS011;63397;47.480;19.238;2022-12-18T03:59:33;40.97;;;12.82;;
74849;SDS011;63397;47.480;19.238;2022-12-18T04:02:36;45.42;;;13.40;;
74849;SDS011;63397;47.480;19.238;2022-12-18T04:05:42;49.95;;;13.95;;
74849;SDS011;63397;47.480;19.238;2022-12-18T04:08:45;41.13;;;13.73;;
74849;SDS011;63397;47.480;19.238;2022-12-18T04:11:52;45.27;;;13.67;;
74849;SDS011;63397;47.480;19.238;2022-12-18T04:14:55;48.45;;;14.60;;
74849;SDS011;63397;47.480;19.238;2022-12-18T04:17:57;54.90;;;13.63;;
74849;SDS011;63397;47.480;19.238;2022-12-18T04:21:06;40.60;;;13.82;;
74849;SDS011;63397;47.480;19.238;2022-12-18T04:24:09;42.80;;;13.17;;
74849;SDS011;63397;47.480;19.238;2022-12-18T04:27:16;45.97;;;13.33;;
74849;SDS011;63397;47.480;19.238;2022-12-18T04:30:23;44.60;;;13.93;;
74849;SDS011;63397;47.480;19.238;2022-12-18T04:33:25;34.70;;;12.05;;
74849;SDS011;63397;47.480;19.238;2022-12-18T04:36:27;47.13;;;14.18;;
74849;SDS011;63397;47.480;19.238;2022-12-18T04:39:30;46.70;;;14.03;;
74849;SDS011;63397;47.480;19.238;2022-12-18T04:42:38;38.53;;;13.23;;
74849;SDS011;63397;47.480;19.238;2022-12-18T04:45:41;39.50;;;11.85;;
74849;SDS011;63397;47.480;19.238;2022-12-18T04:48:45;38.40;;;13.23;;
74849;SDS011;63397;47.480;19.238;2022-12-18T04:51:47;43.05;;;12.35;;
74849;SDS011;63397;47.480;19.238;2022-12-18T04:54:50;35.43;;;12.60;;
74849;SDS011;63397;47.480;19.238;2022-12-18T04:57:52;46.87;;;13.73;;
74849;SDS011;63397;47.480;19.238;2022-12-18T05:00:54;49.50;;;13.38;;
74849;SDS011;63397;47.480;19.238;2022-12-18T05:03:57;46.03;;;14.35;;
74849;SDS011;63397;47.480;19.238;2022-12-18T05:06:59;44.95;;;13.20;;
74849;SDS011;63397;47.480;19.238;2022-12-18T05:10:01;47.60;;;14.37;;
74849;SDS011;63397;47.480;19.238;2022-12-18T05:13:06;40.27;;;14.20;;
74849;SDS011;63397;47.480;19.238;2022-12-18T05:16:09;51.08;;;14.48;;
74849;SDS011;63397;47.480;19.238;2022-12-18T05:19:11;55.03;;;16.42;;
74849;SDS011;63397;47.480;19.238;2022-12-18T05:22:14;57.83;;;16.77;;
74849;SDS011;63397;47.480;19.238;2022-12-18T05:25:16;51.37;;;15.00;;
74849;SDS011;63397;47.480;19.238;2022-12-18T05:28:19;56.27;;;15.23;;
74849;SDS011;63397;47.480;19.238;2022-12-18T05:31:21;54.85;;;15.63;;
74849;SDS011;63397;47.480;19.238;2022-12-18T05:34:24;62.92;;;17.63;;
74849;SDS011;63397;47.480;19.238;2022-12-18T05:37:26;50.55;;;15.70;;
74849;SDS011;63397;47.480;19.238;2022-12-18T05:40:29;54.57;;;17.00;;
74849;SDS011;63397;47.480;19.238;2022-12-18T05:43:33;50.17;;;15.77;;
74849;SDS011;63397;47.480;19.238;2022-12-18T05:46:35;45.78;;;14.70;;
74849;SDS011;63397;47.480;19.238;2022-12-18T05:49:41;43.75;;;13.85;;
74849;SDS011;63397;47.480;19.238;2022-12-18T05:52:43;47.55;;;14.18;;
74849;SDS011;63397;47.480;19.238;2022-12-18T05:55:45;45.43;;;13.67;;
74849;SDS011;63397;47.480;19.238;2022-12-18T05:58:51;52.43;;;13.43;;
74849;SDS011;63397;47.480;19.238;2022-12-18T06:01:53;45.58;;;13.10;;
74849;SDS011;63397;47.480;19.238;2022-12-18T06:04:56;52.97;;;15.82;;
74849;SDS011;63397;47.480;19.238;2022-12-18T06:07:58;38.35;;;13.18;;
74849;SDS011;63397;47.480;19.238;2022-12-18T06:11:00;37.77;;;12.10;;
74849;SDS011;63397;47.480;19.238;2022-12-18T06:14:03;44.90;;;13.47;;
74849;SDS011;63397;47.480;19.238;2022-12-18T06:17:05;48.38;;;13.25;;
74849;SDS011;63397;47.480;19.238;2022-12-18T06:20:08;46.25;;;13.15;;
74849;SDS011;63397;47.480;19.238;2022-12-18T06:23:10;41.80;;;12.80;;
74849;SDS011;63397;47.480;19.238;2022-12-18T06:26:13;58.00;;;16.93;;
74849;SDS011;63397;47.480;19.238;2022-12-18T06:29:15;49.63;;;15.90;;
74849;SDS011;63397;47.480;19.238;2022-12-18T06:32:17;47.78;;;14.60;;
74849;SDS011;63397;47.480;19.238;2022-12-18T06:35:20;48.50;;;14.55;;
74849;SDS011;63397;47.480;19.238;2022-12-18T06:38:23;38.10;;;11.73;;
74849;SDS011;63397;47.480;19.238;2022-12-18T06:41:25;54.57;;;15.10;;
74849;SDS011;63397;47.480;19.238;2022-12-18T06:44:28;46.50;;;14.13;;
74849;SDS011;63397;47.480;19.238;2022-12-18T06:47:30;45.83;;;13.52;;
74849;SDS011;63397;47.480;19.238;2022-12-18T06:50:32;51.53;;;14.77;;
74849;SDS011;63397;47.480;19.238;2022-12-18T06:53:34;48.50;;;14.52;;
74849;SDS011;63397;47.480;19.238;2022-12-18T06:56:36;46.57;;;15.23;;
74849;SDS011;63397;47.480;19.238;2022-12-18T06:59:39;47.07;;;15.47;;
74849;SDS011;63397;47.480;19.238;2022-12-18T07:02:41;48.10;;;14.15;;
74849;SDS011;63397;47.480;19.238;2022-12-18T07:05:43;47.50;;;14.50;;
74849;SDS011;63397;47.480;19.238;2022-12-18T07:08:46;45.83;;;14.25;;
74849;SDS011;63397;47.480;19.238;2022-12-18T07:11:48;48.00;;;14.57;;
74849;SDS011;63397;47.480;19.238;2022-12-18T07:14:51;45.47;;;15.80;;
74849;SDS011;63397;47.480;19.238;2022-12-18T07:17:53;43.90;;;14.30;;
74849;SDS011;63397;47.480;19.238;2022-12-18T07:20:55;45.00;;;14.00;;
74849;SDS011;63397;47.480;19.238;2022-12-18T07:23:57;46.58;;;14.70;;
74849;SDS011;63397;47.480;19.238;2022-12-18T07:27:00;57.43;;;17.60;;
74849;SDS011;63397;47.480;19.238;2022-12-18T07:30:02;53.40;;;16.57;;
74849;SDS011;63397;47.480;19.238;2022-12-18T07:33:05;54.13;;;15.75;;
74849;SDS011;63397;47.480;19.238;2022-12-18T07:36:07;50.38;;;14.60;;
74849;SDS011;63397;47.480;19.238;2022-12-18T07:39:13;50.92;;;15.88;;
74849;SDS011;63397;47.480;19.238;2022-12-18T07:42:15;50.83;;;15.30;;
74849;SDS011;63397;47.480;19.238;2022-12-18T07:45:32;52.47;;;16.00;;
74849;SDS011;63397;47.480;19.238;2022-12-18T07:48:35;47.90;;;15.10;;
74849;SDS011;63397;47.480;19.238;2022-12-18T07:51:37;53.67;;;14.90;;
74849;SDS011;63397;47.480;19.238;2022-12-18T07:54:39;56.30;;;16.80;;
74849;SDS011;63397;47.480;19.238;2022-12-18T07:57:42;51.50;;;15.07;;
74849;SDS011;63397;47.480;19.238;2022-12-18T08:01:07;57.17;;;16.20;;
74849;SDS011;63397;47.480;19.238;2022-12-18T08:04:09;56.53;;;17.60;;
74849;SDS011;63397;47.480;19.238;2022-12-18T08:07:11;51.85;;;16.83;;
74849;SDS011;63397;47.480;19.238;2022-12-18T08:10:15;47.13;;;15.40;;
74849;SDS011;63397;47.480;19.238;2022-12-18T08:13:17;56.67;;;16.43;;
74849;SDS011;63397;47.480;19.238;2022-12-18T08:16:20;57.50;;;17.13;;
74849;SDS011;63397;47.480;19.238;2022-12-18T08:19:22;50.92;;;17.50;;
74849;SDS011;63397;47.480;19.238;2022-12-18T08:22:24;55.20;;;17.35;;
74849;SDS011;63397;47.480;19.238;2022-12-18T08:25:27;58.15;;;17.27;;
74849;SDS011;63397;47.480;19.238;2022-12-18T08:28:29;48.27;;;16.37;;
74849;SDS011;63397;47.480;19.238;2022-12-18T08:31:31;50.03;;;14.20;;
74849;SDS011;63397;47.480;19.238;2022-12-18T08:34:34;50.85;;;16.13;;
74849;SDS011;63397;47.480;19.238;2022-12-18T08:37:37;52.15;;;16.85;;
74849;SDS011;63397;47.480;19.238;2022-12-18T08:40:39;38.10;;;13.75;;
74849;SDS011;63397;47.480;19.238;2022-12-18T08:43:41;47.20;;;14.63;;
74849;SDS011;63397;47.480;19.238;2022-12-18T08:47:03;45.20;;;14.80;;
74849;SDS011;63397;47.480;19.238;2022-12-18T08:50:05;37.30;;;14.05;;
74849;SDS011;63397;47.480;19.238;2022-12-18T08:53:08;47.53;;;14.95;;
74849;SDS011;63397;47.480;19.238;2022-12-18T08:56:11;54.17;;;14.95;;
74849;SDS011;63397;47.480;19.238;2022-12-18T08:59:13;41.93;;;13.83;;
74849;SDS011;63397;47.480;19.238;2022-12-18T09:02:21;47.97;;;17.20;;
74849;SDS011;63397;47.480;19.238;2022-12-18T09:05:23;51.88;;;17.00;;
74849;SDS011;63397;47.480;19.238;2022-12-18T09:08:25;49.88;;;17.65;;
74849;SDS011;63397;47.480;19.238;2022-12-18T09:11:28;48.85;;;17.55;;
74849;SDS011;63397;47.480;19.238;2022-12-18T09:14:31;52.37;;;15.90;;
74849;SDS011;63397;47.480;19.238;2022-12-18T09:17:33;50.57;;;15.97;;
74849;SDS011;63397;47.480;19.238;2022-12-18T09:20:36;53.85;;;15.30;;
74849;SDS011;63397;47.480;19.238;2022-12-18T09:23:38;51.83;;;16.13;;
74849;SDS011;63397;47.480;19.238;2022-12-18T09:26:41;47.22;;;15.38;;
74849;SDS011;63397;47.480;19.238;2022-12-18T09:29:48;46.57;;;15.60;;
74849;SDS011;63397;47.480;19.238;2022-12-18T09:32:50;57.03;;;17.13;;
74849;SDS011;63397;47.480;19.238;2022-12-18T09:35:55;45.00;;;14.10;;
74849;SDS011;63397;47.480;19.238;2022-12-18T09:38:57;45.53;;;14.65;;
74849;SDS011;63397;47.480;19.238;2022-12-18T09:42:09;43.35;;;14.05;;
74849;SDS011;63397;47.480;19.238;2022-12-18T09:45:13;46.47;;;14.27;;
74849;SDS011;63397;47.480;19.238;2022-12-18T09:48:27;44.53;;;14.23;;
74849;SDS011;63397;47.480;19.238;2022-12-18T09:51:38;42.55;;;14.50;;
74849;SDS011;63397;47.480;19.238;2022-12-18T09:54:42;41.80;;;14.27;;
74849;SDS011;63397;47.480;19.238;2022-12-18T09:57:47;45.28;;;14.32;;
74849;SDS011;63397;47.480;19.238;2022-12-18T10:00:51;46.30;;;14.43;;
74849;SDS011;63397;47.480;19.238;2022-12-18T10:03:54;34.83;;;12.93;;
74849;SDS011;63397;47.480;19.238;2022-12-18T10:13:24;43.53;;;13.65;;
74849;SDS011;63397;47.480;19.238;2022-12-18T10:16:39;43.37;;;13.00;;
74849;SDS011;63397;47.480;19.238;2022-12-18T10:19:52;37.83;;;12.93;;
74849;SDS011;63397;47.480;19.238;2022-12-18T10:29:12;40.22;;;14.13;;
74849;SDS011;63397;47.480;19.238;2022-12-18T10:32:15;39.47;;;11.67;;
74849;SDS011;63397;47.480;19.238;2022-12-18T10:35:22;39.17;;;13.47;;
74849;SDS011;63397;47.480;19.238;2022-12-18T10:38:25;38.55;;;12.40;;
74849;SDS011;63397;47.480;19.238;2022-12-18T10:41:28;41.47;;;13.95;;
74849;SDS011;63397;47.480;19.238;2022-12-18T10:44:32;44.70;;;14.77;;
74849;SDS011;63397;47.480;19.238;2022-12-18T10:47:35;45.30;;;13.83;;
74849;SDS011;63397;47.480;19.238;2022-12-18T10:50:37;39.07;;;12.80;;
74849;SDS011;63397;47.480;19.238;2022-12-18T10:57:16;42.65;;;13.95;;
74849;SDS011;63397;47.480;19.238;2022-12-18T11:00:29;37.30;;;12.80;;
74849;SDS011;63397;47.480;19.238;2022-12-18T11:10:01;44.72;;;13.02;;
74849;SDS011;63397;47.480;19.238;2022-12-18T11:13:11;32.63;;;11.98;;
74849;SDS011;63397;47.480;19.238;2022-12-18T11:16:20;40.03;;;11.57;;
74849;SDS011;63397;47.480;19.238;2022-12-18T11:19:38;33.70;;;11.77;;
74849;SDS011;63397;47.480;19.238;2022-12-18T11:22:41;34.17;;;11.60;;
74849;SDS011;63397;47.480;19.238;2022-12-18T11:25:51;38.70;;;12.82;;
74849;SDS011;63397;47.480;19.238;2022-12-18T11:29:07;39.47;;;12.13;;
74849;SDS011;63397;47.480;19.238;2022-12-18T11:35:38;36.23;;;12.17;;
74849;SDS011;63397;47.480;19.238;2022-12-18T11:38:42;40.30;;;12.40;;
74849;SDS011;63397;47.480;19.238;2022-12-18T11:41:56;38.75;;;12.02;;
74849;SDS011;63397;47.480;19.238;2022-12-18T11:48:25;36.45;;;12.73;;
74849;SDS011;63397;47.480;19.238;2022-12-18T11:51:33;40.20;;;13.27;;
74849;SDS011;63397;47.480;19.238;2022-12-18T11:54:37;36.13;;;11.47;;
74849;SDS011;63397;47.480;19.238;2022-12-18T12:00:50;36.50;;;12.70;;
74849;SDS011;63397;47.480;19.238;2022-12-18T12:10:34;36.63;;;11.53;;
74849;SDS011;63397;47.480;19.238;2022-12-18T12:13:42;38.08;;;11.88;;
74849;SDS011;63397;47.480;19.238;2022-12-18T12:23:57;34.30;;;12.03;;
74849;SDS011;63397;47.480;19.238;2022-12-18T12:29:46;25.80;;;9.10;;
74849;SDS011;63397;47.480;19.238;2022-12-18T12:39:22;27.53;;;9.67;;
74849;SDS011;63397;47.480;19.238;2022-12-18T12:42:32;28.23;;;9.77;;
74849;SDS011;63397;47.480;19.238;2022-12-18T12:46:05;31.10;;;9.85;;
74849;SDS011;63397;47.480;19.238;2022-12-18T12:49:13;25.33;;;9.40;;
74849;SDS011;63397;47.480;19.238;2022-12-18T12:52:20;31.40;;;9.90;;
74849;SDS011;63397;47.480;19.238;2022-12-18T12:55:25;31.90;;;10.43;;
74849;SDS011;63397;47.480;19.238;2022-12-18T12:58:31;26.20;;;9.53;;
74849;SDS011;63397;47.480;19.238;2022-12-18T13:01:40;25.55;;;8.70;;
74849;SDS011;63397;47.480;19.238;2022-12-18T13:10:57;26.30;;;9.30;;
74849;SDS011;63397;47.480;19.238;2022-12-18T13:14:21;29.53;;;10.00;;
74849;SDS011;63397;47.480;19.238;2022-12-18T13:17:27;29.92;;;10.90;;
74849;SDS011;63397;47.480;19.238;2022-12-18T13:20:34;34.03;;;11.50;;
74849;SDS011;63397;47.480;19.238;2022-12-18T13:23:38;27.27;;;10.80;;
74849;SDS011;63397;47.480;19.238;2022-12-18T13:26:41;32.63;;;11.20;;
74849;SDS011;63397;47.480;19.238;2022-12-18T13:29:44;36.37;;;11.67;;
74849;SDS011;63397;47.480;19.238;2022-12-18T13:32:47;29.65;;;10.60;;
74849;SDS011;63397;47.480;19.238;2022-12-18T13:39:09;32.67;;;10.48;;
74849;SDS011;63397;47.480;19.238;2022-12-18T13:45:40;31.67;;;11.37;;
74849;SDS011;63397;47.480;19.238;2022-12-18T13:48:49;32.72;;;11.05;;
74849;SDS011;63397;47.480;19.238;2022-12-18T13:51:53;35.90;;;12.60;;
74849;SDS011;63397;47.480;19.238;2022-12-18T13:54:56;40.97;;;13.63;;
74849;SDS011;63397;47.480;19.238;2022-12-18T13:58:03;36.77;;;13.50;;
74849;SDS011;63397;47.480;19.238;2022-12-18T14:01:15;47.43;;;15.43;;
74849;SDS011;63397;47.480;19.238;2022-12-18T14:04:25;43.97;;;15.45;;
74849;SDS011;63397;47.480;19.238;2022-12-18T14:07:28;42.70;;;15.05;;
74849;SDS011;63397;47.480;19.238;2022-12-18T14:10:45;50.45;;;15.98;;
74849;SDS011;63397;47.480;19.238;2022-12-18T14:13:50;47.10;;;15.03;;
74849;SDS011;63397;47.480;19.238;2022-12-18T14:16:54;48.07;;;16.43;;
74849;SDS011;63397;47.480;19.238;2022-12-18T14:19:56;47.17;;;16.40;;
74849;SDS011;63397;47.480;19.238;2022-12-18T14:22:59;46.58;;;15.25;;
74849;SDS011;63397;47.480;19.238;2022-12-18T14:26:03;55.95;;;18.08;;
74849;SDS011;63397;47.480;19.238;2022-12-18T14:29:26;52.63;;;17.93;;
74849;SDS011;63397;47.480;19.238;2022-12-18T14:32:29;53.93;;;18.40;;
74849;SDS011;63397;47.480;19.238;2022-12-18T14:35:35;61.70;;;19.17;;
74849;SDS011;63397;47.480;19.238;2022-12-18T14:38:38;58.88;;;17.70;;
74849;SDS011;63397;47.480;19.238;2022-12-18T14:41:41;56.85;;;19.02;;
74849;SDS011;63397;47.480;19.238;2022-12-18T14:44:43;52.20;;;18.57;;
74849;SDS011;63397;47.480;19.238;2022-12-18T14:48:12;52.93;;;19.50;;
74849;SDS011;63397;47.480;19.238;2022-12-18T14:51:24;51.42;;;18.60;;
74849;SDS011;63397;47.480;19.238;2022-12-18T14:54:29;53.03;;;18.15;;
74849;SDS011;63397;47.480;19.238;2022-12-18T14:57:35;52.03;;;17.98;;
74849;SDS011;63397;47.480;19.238;2022-12-18T15:00:38;53.17;;;18.47;;
74849;SDS011;63397;47.480;19.238;2022-12-18T15:03:43;56.70;;;18.50;;
74849;SDS011;63397;47.480;19.238;2022-12-18T15:06:47;60.42;;;19.02;;
74849;SDS011;63397;47.480;19.238;2022-12-18T15:16:07;47.77;;;18.40;;
74849;SDS011;63397;47.480;19.238;2022-12-18T15:19:15;55.33;;;18.43;;
74849;SDS011;63397;47.480;19.238;2022-12-18T15:22:24;58.55;;;18.20;;
74849;SDS011;63397;47.480;19.238;2022-12-18T15:25:30;57.80;;;19.75;;
74849;SDS011;63397;47.480;19.238;2022-12-18T15:28:38;61.20;;;19.52;;
74849;SDS011;63397;47.480;19.238;2022-12-18T15:31:41;56.07;;;19.17;;
74849;SDS011;63397;47.480;19.238;2022-12-18T15:34:44;60.13;;;20.27;;
74849;SDS011;63397;47.480;19.238;2022-12-18T15:37:46;59.17;;;20.23;;
74849;SDS011;63397;47.480;19.238;2022-12-18T15:40:49;59.83;;;19.42;;
74849;SDS011;63397;47.480;19.238;2022-12-18T15:43:52;57.72;;;19.33;;
74849;SDS011;63397;47.480;19.238;2022-12-18T15:46:54;57.37;;;19.87;;
74849;SDS011;63397;47.480;19.238;2022-12-18T15:49:57;56.33;;;20.03;;
74849;SDS011;63397;47.480;19.238;2022-12-18T15:52:59;57.75;;;21.58;;
74849;SDS011;63397;47.480;19.238;2022-12-18T15:56:01;60.55;;;20.70;;
74849;SDS011;63397;47.480;19.238;2022-12-18T15:59:23;63.83;;;20.20;;
74849;SDS011;63397;47.480;19.238;2022-12-18T16:02:25;61.00;;;19.87;;
74849;SDS011;63397;47.480;19.238;2022-12-18T16:05:29;62.87;;;22.07;;
74849;SDS011;63397;47.480;19.238;2022-12-18T16:08:31;65.75;;;22.63;;
74849;SDS011;63397;47.480;19.238;2022-12-18T16:11:35;62.08;;;22.95;;
74849;SDS011;63397;47.480;19.238;2022-12-18T16:14:42;63.50;;;21.55;;
74849;SDS011;63397;47.480;19.238;2022-12-18T16:17:45;56.57;;;20.13;;
74849;SDS011;63397;47.480;19.238;2022-12-18T16:20:48;67.30;;;21.97;;
74849;SDS011;63397;47.480;19.238;2022-12-18T16:23:51;68.88;;;21.92;;
74849;SDS011;63397;47.480;19.238;2022-12-18T16:26:55;60.58;;;21.98;;
74849;SDS011;63397;47.480;19.238;2022-12-18T16:29:58;68.60;;;22.88;;
74849;SDS011;63397;47.480;19.238;2022-12-18T16:33:00;72.70;;;24.93;;
74849;SDS011;63397;47.480;19.238;2022-12-18T16:36:03;66.33;;;22.33;;
74849;SDS011;63397;47.480;19.238;2022-12-18T16:39:06;62.88;;;21.80;;
74849;SDS011;63397;47.480;19.238;2022-12-18T16:42:10;70.05;;;21.73;;
74849;SDS011;63397;47.480;19.238;2022-12-18T16:45:15;61.42;;;22.58;;
74849;SDS011;63397;47.480;19.238;2022-12-18T16:48:18;66.17;;;23.20;;
74849;SDS011;63397;47.480;19.238;2022-12-18T16:51:20;68.50;;;23.00;;
74849;SDS011;63397;47.480;19.238;2022-12-18T16:54:23;64.40;;;21.30;;
74849;SDS011;63397;47.480;19.238;2022-12-18T16:57:25;73.82;;;24.92;;
74849;SDS011;63397;47.480;19.238;2022-12-18T17:00:28;78.18;;;24.23;;
74849;SDS011;63397;47.480;19.238;2022-12-18T17:03:30;70.07;;;24.10;;
74849;SDS011;63397;47.480;19.238;2022-12-18T17:06:34;71.60;;;23.27;;
74849;SDS011;63397;47.480;19.238;2022-12-18T17:09:37;74.57;;;23.55;;
74849;SDS011;63397;47.480;19.238;2022-12-18T17:12:39;74.57;;;24.23;;
74849;SDS011;63397;47.480;19.238;2022-12-18T17:15:42;74.57;;;25.83;;
74849;SDS011;63397;47.480;19.238;2022-12-18T17:18:44;70.07;;;24.33;;
74849;SDS011;63397;47.480;19.238;2022-12-18T17:21:47;76.33;;;25.47;;
74849;SDS011;63397;47.480;19.238;2022-12-18T17:24:50;73.85;;;26.60;;
74849;SDS011;63397;47.480;19.238;2022-12-18T17:27:53;80.22;;;28.17;;
74849;SDS011;63397;47.480;19.238;2022-12-18T17:30:55;84.32;;;28.75;;
74849;SDS011;63397;47.480;19.238;2022-12-18T17:33:59;81.97;;;28.60;;
74849;SDS011;63397;47.480;19.238;2022-12-18T17:37:02;78.83;;;26.57;;
74849;SDS011;63397;47.480;19.238;2022-12-18T17:40:05;79.18;;;26.00;;
74849;SDS011;63397;47.480;19.238;2022-12-18T17:43:08;76.28;;;27.35;;
74849;SDS011;63397;47.480;19.238;2022-12-18T17:46:11;79.00;;;25.77;;
74849;SDS011;63397;47.480;19.238;2022-12-18T17:49:14;76.10;;;27.13;;
74849;SDS011;63397;47.480;19.238;2022-12-18T17:52:17;84.97;;;25.97;;
74849;SDS011;63397;47.480;19.238;2022-12-18T17:55:19;77.68;;;27.23;;
74849;SDS011;63397;47.480;19.238;2022-12-18T17:58:22;75.93;;;26.63;;
74849;SDS011;63397;47.480;19.238;2022-12-18T18:01:25;90.80;;;27.48;;
74849;SDS011;63397;47.480;19.238;2022-12-18T18:04:27;80.47;;;28.10;;
74849;SDS011;63397;47.480;19.238;2022-12-18T18:07:30;80.57;;;28.67;;
74849;SDS011;63397;47.480;19.238;2022-12-18T18:10:36;88.53;;;28.33;;
74849;SDS011;63397;47.480;19.238;2022-12-18T18:13:41;78.70;;;27.00;;
74849;SDS011;63397;47.480;19.238;2022-12-18T18:17:02;79.35;;;30.38;;
74849;SDS011;63397;47.480;19.238;2022-12-18T18:20:06;87.70;;;27.20;;
74849;SDS011;63397;47.480;19.238;2022-12-18T18:23:09;90.20;;;29.13;;
74849;SDS011;63397;47.480;19.238;2022-12-18T18:26:12;81.40;;;30.40;;
74849;SDS011;63397;47.480;19.238;2022-12-18T18:29:19;81.88;;;28.83;;
74849;SDS011;63397;47.480;19.238;2022-12-18T18:32:22;83.47;;;31.23;;
74849;SDS011;63397;47.480;19.238;2022-12-18T18:35:24;87.60;;;30.87;;
74849;SDS011;63397;47.480;19.238;2022-12-18T18:38:46;77.83;;;30.10;;
74849;SDS011;63397;47.480;19.238;2022-12-18T18:41:49;80.97;;;28.40;;
74849;SDS011;63397;47.480;19.238;2022-12-18T18:44:52;80.32;;;27.85;;
74849;SDS011;63397;47.480;19.238;2022-12-18T18:47:54;72.75;;;28.38;;
74849;SDS011;63397;47.480;19.238;2022-12-18T18:50:57;88.27;;;30.30;;
74849;SDS011;63397;47.480;19.238;2022-12-18T18:54:00;79.77;;;29.60;;
74849;SDS011;63397;47.480;19.238;2022-12-18T18:57:02;89.25;;;29.55;;
74849;SDS011;63397;47.480;19.238;2022-12-18T19:00:23;83.00;;;29.20;;
74849;SDS011;63397;47.480;19.238;2022-12-18T19:03:26;86.95;;;31.35;;
74849;SDS011;63397;47.480;19.238;2022-12-18T19:06:29;80.57;;;30.43;;
74849;SDS011;63397;47.480;19.238;2022-12-18T19:09:32;81.77;;;29.07;;
74849;SDS011;63397;47.480;19.238;2022-12-18T19:12:34;78.05;;;29.58;;
74849;SDS011;63397;47.480;19.238;2022-12-18T19:16:03;85.15;;;30.15;;
74849;SDS011;63397;47.480;19.238;2022-12-18T19:19:06;86.05;;;29.40;;
74849;SDS011;63397;47.480;19.238;2022-12-18T19:22:08;83.73;;;32.07;;
74849;SDS011;63397;47.480;19.238;2022-12-18T19:25:12;81.80;;;31.43;;
74849;SDS011;63397;47.480;19.238;2022-12-18T19:28:15;87.18;;;30.75;;
74849;SDS011;63397;47.480;19.238;2022-12-18T19:31:23;79.30;;;29.00;;